Sunshine, North Carolina
Current Conditions -  °F | °C
As of 12:55 AM on Monday 20 Oct 2014 (Local Time) from KFQD Reporting Station
Clear Clear  
Wind Chill: 47°   Ceiling: Unl
Heat Index: 47°   Visibility: 10mi
Dew Point: 45°   Wind: 0mph
Humidity: 93%   Direction: NA
Pressure: 30.13"   Gusts: NA
Location:  35.4977°N, 81.7958°W
Report Text: KFQD 200455Z AUTO 00000KT 10SM CLR 08/07 A3013 RMK AO2 T00840074
Loading
Personal Weather Stations






























Interactive Weather Map
Tropical Storm Tracking
New forecast layout! Learn more

10-Day Weather Forecast

Advertisements
Track Severe Weather on mobile